createdAt,value
2018-02-15T00:00:36.207Z,2.70
2018-02-15T00:03:03.652Z,2.60
2018-02-15T00:05:31.101Z,2.50
2018-02-15T00:07:59.316Z,2.50
2018-02-15T00:10:27.535Z,2.50
2018-02-15T00:12:54.997Z,2.50
2018-02-15T00:15:22.437Z,2.50
2018-02-15T00:17:49.887Z,2.50
2018-02-15T00:20:17.344Z,2.50
2018-02-15T00:22:44.805Z,2.40
2018-02-15T00:25:12.256Z,2.50
2018-02-15T00:27:39.720Z,2.40
2018-02-15T00:30:07.219Z,2.40
2018-02-15T00:32:34.672Z,2.30
2018-02-15T00:35:02.147Z,2.30
2018-02-15T00:37:29.584Z,2.20
2018-02-15T00:39:57.076Z,2.10
2018-02-15T00:42:24.550Z,2.00
2018-02-15T00:44:51.985Z,1.90
2018-02-15T00:47:19.422Z,1.80
2018-02-15T00:49:46.881Z,1.70
2018-02-15T00:52:14.334Z,1.70
2018-02-15T00:54:41.799Z,1.70
2018-02-15T00:57:09.258Z,1.60
2018-02-15T00:59:36.751Z,1.50
2018-02-15T01:02:04.204Z,1.50
2018-02-15T01:04:31.676Z,1.50
2018-02-15T01:06:59.124Z,1.40
2018-02-15T01:09:26.616Z,1.40
2018-02-15T01:11:54.094Z,1.30
2018-02-15T01:14:21.537Z,1.30
2018-02-15T01:16:48.982Z,1.30
2018-02-15T01:19:16.453Z,1.30
2018-02-15T01:21:43.905Z,1.30
2018-02-15T01:24:11.341Z,1.20
2018-02-15T01:26:39.588Z,1.20
2018-02-15T01:29:07.030Z,1.20
2018-02-15T01:31:34.475Z,1.20
2018-02-15T01:34:01.916Z,1.20
2018-02-15T01:36:29.361Z,1.10
2018-02-15T01:38:56.797Z,1.20
2018-02-15T01:41:24.242Z,1.10
2018-02-15T01:43:51.758Z,1.10
2018-02-15T01:46:19.189Z,1.10
2018-02-15T01:48:46.642Z,1.10
2018-02-15T01:51:14.080Z,1.10
2018-02-15T01:53:41.538Z,1.00
2018-02-15T01:56:08.975Z,1.00
2018-02-15T01:58:37.180Z,1.00
2018-02-15T02:01:05.043Z,1.00
2018-02-15T02:03:32.489Z,1.00
2018-02-15T02:05:59.935Z,1.00
2018-02-15T02:08:28.149Z,1.10
2018-02-15T02:10:55.603Z,1.00
2018-02-15T02:13:23.063Z,1.00
2018-02-15T02:15:50.518Z,1.10
2018-02-15T02:18:17.980Z,1.10
2018-02-15T02:20:46.205Z,1.10
2018-02-15T02:23:13.664Z,1.10
2018-02-15T02:25:41.133Z,1.10
2018-02-15T02:28:08.582Z,1.00
2018-02-15T02:30:36.022Z,1.10
2018-02-15T02:33:03.481Z,1.10
2018-02-15T02:35:30.934Z,1.10
2018-02-15T02:37:59.152Z,1.10
2018-02-15T02:40:26.619Z,1.10
2018-02-15T02:42:54.058Z,1.10
2018-02-15T02:45:21.523Z,1.10
2018-02-15T02:47:48.979Z,1.10
2018-02-15T02:50:16.868Z,1.10
2018-02-15T02:52:44.323Z,1.10
2018-02-15T02:55:11.768Z,1.00
2018-02-15T02:57:39.985Z,1.10
2018-02-15T03:00:25.304Z,1.10
2018-02-15T03:02:53.568Z,1.20
2018-02-15T03:05:21.059Z,1.10
2018-02-15T03:07:49.313Z,1.10
2018-02-15T03:10:16.824Z,1.10
2018-02-15T03:12:44.305Z,1.10
2018-02-15T03:15:11.831Z,1.10
2018-02-15T03:17:40.074Z,1.20
2018-02-15T03:20:07.573Z,1.20
2018-02-15T03:22:35.951Z,1.10
2018-02-15T03:25:04.171Z,1.20
2018-02-15T03:27:31.622Z,1.20
2018-02-15T03:29:59.068Z,1.20
2018-02-15T03:32:26.519Z,1.20
2018-02-15T03:34:54.725Z,1.20
2018-02-15T03:37:22.212Z,1.20
2018-02-15T03:39:49.660Z,1.20
2018-02-15T03:42:17.096Z,1.20
2018-02-15T03:44:45.317Z,1.20
2018-02-15T03:47:12.808Z,1.30
2018-02-15T03:49:40.257Z,1.20
2018-02-15T03:52:08.476Z,1.30
2018-02-15T03:54:36.714Z,1.30
2018-02-15T03:57:04.174Z,1.30
2018-02-15T03:59:31.612Z,1.30
2018-02-15T04:01:59.087Z,1.30
2018-02-15T04:04:26.552Z,1.30
2018-02-15T04:06:54.019Z,1.40
2018-02-15T04:09:21.497Z,1.40
2018-02-15T04:11:48.966Z,1.40
2018-02-15T04:14:16.433Z,1.40
2018-02-15T04:16:43.900Z,1.40
2018-02-15T04:19:11.364Z,1.40
2018-02-15T04:21:38.831Z,1.40
2018-02-15T04:24:06.285Z,1.40
2018-02-15T04:26:33.763Z,1.50
2018-02-15T04:29:01.992Z,1.50
2018-02-15T04:31:29.477Z,1.40
2018-02-15T04:33:56.954Z,1.50
2018-02-15T04:36:24.426Z,1.50
2018-02-15T04:38:51.880Z,1.50
2018-02-15T04:41:19.322Z,1.50
2018-02-15T04:43:46.789Z,1.50
2018-02-15T04:46:14.242Z,1.50
2018-02-15T04:48:41.712Z,1.50
2018-02-15T04:51:09.144Z,1.60
2018-02-15T04:53:36.620Z,1.60
2018-02-15T04:56:04.076Z,1.50
2018-02-15T04:58:31.540Z,1.60
2018-02-15T05:00:59.002Z,1.50
2018-02-15T05:03:26.469Z,1.50
2018-02-15T05:05:53.934Z,1.60
2018-02-15T05:08:21.391Z,1.60
2018-02-15T05:10:48.891Z,1.60
2018-02-15T05:13:16.372Z,1.60
2018-02-15T05:15:44.601Z,1.60
2018-02-15T05:18:12.059Z,1.60
2018-02-15T05:20:39.577Z,1.60
2018-02-15T05:23:07.805Z,1.60
2018-02-15T05:25:35.279Z,1.60
2018-02-15T05:28:02.725Z,1.60
2018-02-15T05:30:30.188Z,1.60
2018-02-15T05:32:57.643Z,1.60
2018-02-15T05:35:25.089Z,1.70
2018-02-15T05:37:52.533Z,1.70
2018-02-15T05:40:20.758Z,1.70
2018-02-15T05:42:48.208Z,1.70
2018-02-15T05:45:15.658Z,1.60
2018-02-15T05:47:43.101Z,1.70
2018-02-15T05:50:11.323Z,1.70
2018-02-15T05:52:38.770Z,1.70
2018-02-15T05:55:06.233Z,1.70
2018-02-15T05:57:33.667Z,1.80
2018-02-15T06:00:01.894Z,1.80
2018-02-15T06:02:29.365Z,1.80
2018-02-15T06:04:56.844Z,1.80
2018-02-15T06:07:24.334Z,1.80
2018-02-15T06:09:54.660Z,1.90
2018-02-15T06:12:22.977Z,1.90
2018-02-15T06:14:50.487Z,1.90
2018-02-15T06:17:17.984Z,2.00
2018-02-15T06:19:46.284Z,1.90
2018-02-15T06:22:15.686Z,2.00
2018-02-15T06:24:43.995Z,2.00
2018-02-15T06:27:11.570Z,2.00
2018-02-15T06:29:39.099Z,2.00
2018-02-15T06:32:07.407Z,2.10
2018-02-15T06:34:34.933Z,2.00
2018-02-15T06:37:03.267Z,2.10
2018-02-15T06:39:30.921Z,2.10
2018-02-15T06:41:58.422Z,2.10
2018-02-15T06:44:26.744Z,2.10
2018-02-15T06:46:54.275Z,2.10
2018-02-15T06:49:21.804Z,2.10
2018-02-15T06:51:49.349Z,2.10
2018-02-15T06:54:16.887Z,2.10
2018-02-15T06:56:45.187Z,2.20
2018-02-15T06:59:12.711Z,2.20
2018-02-15T07:01:41.022Z,2.30
2018-02-15T07:04:09.319Z,2.20
2018-02-15T07:06:36.837Z,2.20
2018-02-15T07:09:04.359Z,2.30
2018-02-15T07:11:31.876Z,2.30
2018-02-15T07:14:00.257Z,2.30
2018-02-15T07:16:27.780Z,2.30
2018-02-15T07:18:55.310Z,2.30
2018-02-15T07:21:23.610Z,2.30
2018-02-15T07:23:51.137Z,2.30
2018-02-15T07:26:18.644Z,2.30
2018-02-15T07:28:46.177Z,2.40
2018-02-15T07:31:14.491Z,2.40
2018-02-15T07:33:42.027Z,2.40
2018-02-15T07:36:10.372Z,2.40
2018-02-15T07:38:37.891Z,2.40
2018-02-15T07:41:05.434Z,2.40
2018-02-15T07:43:33.716Z,2.40
2018-02-15T07:46:01.990Z,2.40
2018-02-15T07:48:30.273Z,2.50
2018-02-15T07:50:58.597Z,2.50
2018-02-15T07:53:26.117Z,2.50
2018-02-15T07:55:54.409Z,2.50
2018-02-15T07:58:22.707Z,2.50
2018-02-15T08:00:50.221Z,2.50
2018-02-15T08:03:17.764Z,2.60
2018-02-15T08:05:45.297Z,2.50
2018-02-15T08:08:12.827Z,2.50
2018-02-15T08:10:40.374Z,2.50
2018-02-15T08:13:07.942Z,2.60
2018-02-15T08:15:35.476Z,2.60
2018-02-15T08:18:03.043Z,2.60
2018-02-15T08:20:30.573Z,2.70
2018-02-15T08:22:58.845Z,2.70
2018-02-15T08:25:27.137Z,2.80
2018-02-15T08:27:55.413Z,2.80
2018-02-15T08:30:22.947Z,2.70
2018-02-15T08:32:50.476Z,2.80
2018-02-15T08:35:18.000Z,2.80
2018-02-15T08:37:46.306Z,2.90
2018-02-15T08:40:13.824Z,2.80
2018-02-15T08:42:41.353Z,2.90
2018-02-15T08:45:08.867Z,2.80
2018-02-15T08:47:37.151Z,2.90
2018-02-15T08:50:04.661Z,2.90
2018-02-15T08:52:32.183Z,2.90
2018-02-15T08:55:00.472Z,3.00
2018-02-15T08:57:28.743Z,3.00
2018-02-15T08:59:57.011Z,3.00
2018-02-15T09:02:24.508Z,3.00
2018-02-15T09:04:52.785Z,3.10
2018-02-15T09:07:21.076Z,3.10
2018-02-15T09:09:48.619Z,3.00
2018-02-15T09:12:17.410Z,3.00
2018-02-15T09:14:44.905Z,3.00
2018-02-15T09:17:12.419Z,3.10
2018-02-15T09:19:39.930Z,3.00
2018-02-15T09:22:07.437Z,3.20
2018-02-15T09:24:34.961Z,3.10
2018-02-15T09:27:02.484Z,3.10
2018-02-15T09:29:29.996Z,3.00
2018-02-15T09:31:57.502Z,3.20
2018-02-15T09:34:25.029Z,3.10
2018-02-15T09:36:52.559Z,3.30
2018-02-15T09:39:20.836Z,3.20
2018-02-15T09:41:49.142Z,3.30
2018-02-15T09:44:16.658Z,3.30
2018-02-15T09:46:44.171Z,3.40
2018-02-15T09:49:11.703Z,3.50
2018-02-15T09:51:39.211Z,3.60
2018-02-15T09:54:06.747Z,3.50
2018-02-15T09:56:35.076Z,3.60
2018-02-15T09:59:02.593Z,3.60
2018-02-15T10:01:30.127Z,3.60
2018-02-15T10:03:57.710Z,3.60
2018-02-15T10:06:25.994Z,3.60
2018-02-15T10:08:54.269Z,3.70
2018-02-15T10:11:22.564Z,3.80
2018-02-15T10:13:50.842Z,3.90
2018-02-15T10:16:19.120Z,3.90
2018-02-15T10:18:47.405Z,3.90
2018-02-15T10:21:15.682Z,4.00
2018-02-15T10:23:43.959Z,3.80
2018-02-15T10:26:12.263Z,3.80
2018-02-15T10:28:39.783Z,3.80
2018-02-15T10:31:07.301Z,3.80
2018-02-15T10:33:34.811Z,4.10
2018-02-15T10:36:02.342Z,4.00
2018-02-15T10:38:29.893Z,4.10
2018-02-15T10:40:57.410Z,4.20
2018-02-15T10:43:25.023Z,4.10
2018-02-15T10:45:52.528Z,4.20
2018-02-15T10:48:20.062Z,4.30
2018-02-15T10:50:47.641Z,4.30
2018-02-15T10:53:15.176Z,4.40
2018-02-15T10:55:42.758Z,4.40
2018-02-15T10:58:10.313Z,4.40
2018-02-15T11:00:43.559Z,4.30
2018-02-15T11:03:16.885Z,4.50
2018-02-15T11:05:45.971Z,4.60
2018-02-15T11:08:13.592Z,4.60
2018-02-15T11:10:41.122Z,4.60
2018-02-15T11:13:08.634Z,4.50
2018-02-15T11:15:36.170Z,4.70
2018-02-15T11:18:03.718Z,4.60
2018-02-15T11:20:31.656Z,4.60
2018-02-15T11:22:59.189Z,4.70
2018-02-15T11:25:27.532Z,4.90
2018-02-15T11:27:55.830Z,4.90
2018-02-15T11:30:23.349Z,4.90
2018-02-15T11:32:50.896Z,4.90
2018-02-15T11:35:18.436Z,4.80
2018-02-15T11:37:45.963Z,5.10
2018-02-15T11:40:14.257Z,5.10
2018-02-15T11:42:41.782Z,5.00
2018-02-15T11:45:09.316Z,5.00
2018-02-15T11:47:36.849Z,5.20
2018-02-15T11:50:04.379Z,5.30
2018-02-15T11:52:31.912Z,5.20
2018-02-15T11:54:59.440Z,5.30
2018-02-15T11:57:26.965Z,5.40
2018-02-15T11:59:54.484Z,5.30
2018-02-15T12:02:22.008Z,5.50
2018-02-15T12:04:50.284Z,6.10
2018-02-15T12:07:17.807Z,6.00
2018-02-15T12:09:45.824Z,6.10
2018-02-15T12:12:14.126Z,6.40
2018-02-15T12:14:42.403Z,6.40
2018-02-15T12:17:10.694Z,6.60
2018-02-15T12:19:38.978Z,6.30
2018-02-15T12:22:07.279Z,6.40
2018-02-15T12:24:34.805Z,6.40
2018-02-15T12:27:02.312Z,6.60
2018-02-15T12:29:29.865Z,6.80
2018-02-15T12:31:57.404Z,6.70
2018-02-15T12:34:25.698Z,6.70
2018-02-15T12:36:53.985Z,6.60
2018-02-15T12:39:21.522Z,6.60
2018-02-15T12:41:49.019Z,6.70
2018-02-15T12:44:16.535Z,6.60
2018-02-15T12:46:44.036Z,6.50
2018-02-15T12:49:12.320Z,6.70
2018-02-15T12:51:39.892Z,6.60
2018-02-15T12:54:07.431Z,6.60
2018-02-15T12:56:34.951Z,6.60
2018-02-15T12:59:02.470Z,6.70
2018-02-15T13:01:30.755Z,6.50
2018-02-15T13:03:59.034Z,6.60
2018-02-15T13:06:27.330Z,6.70
2018-02-15T13:08:54.861Z,6.70
2018-02-15T13:11:22.382Z,6.60
2018-02-15T13:13:49.908Z,6.60
2018-02-15T13:16:30.215Z,6.50
2018-02-15T13:19:09.599Z,6.50
2018-02-15T13:21:37.898Z,6.50
2018-02-15T13:24:05.435Z,6.50
2018-02-15T13:26:33.715Z,6.50
2018-02-15T13:29:02.009Z,6.40
2018-02-15T13:31:29.535Z,6.40
2018-02-15T13:33:57.037Z,6.50
2018-02-15T13:36:25.326Z,6.60
2018-02-15T13:38:52.866Z,6.60
2018-02-15T13:41:21.156Z,6.50
2018-02-15T13:43:49.452Z,6.60
2018-02-15T13:46:17.713Z,6.70
2018-02-15T13:48:45.222Z,6.70
2018-02-15T13:51:12.744Z,6.60
2018-02-15T13:53:41.074Z,6.80
2018-02-15T13:58:52.260Z,6.80
2018-02-15T14:01:19.760Z,6.70
2018-02-15T14:03:47.318Z,6.70
2018-02-15T14:06:14.834Z,6.80
2018-02-15T14:08:42.367Z,6.90
2018-02-15T14:11:09.905Z,6.90
2018-02-15T14:13:37.450Z,6.90
2018-02-15T14:16:04.987Z,7.00
2018-02-15T14:18:32.501Z,6.80
2018-02-15T14:21:00.042Z,6.80
2018-02-15T14:23:27.578Z,6.80
2018-02-15T14:25:55.131Z,6.80
2018-02-15T14:28:23.408Z,6.80
2018-02-15T14:30:51.686Z,6.90
2018-02-15T14:33:19.213Z,6.80
2018-02-15T14:35:46.733Z,6.90
2018-02-15T14:38:15.007Z,6.80
2018-02-15T14:40:43.330Z,6.70
2018-02-15T14:43:10.852Z,6.70
2018-02-15T14:45:39.113Z,6.70
2018-02-15T14:48:06.642Z,6.70
2018-02-15T14:50:34.156Z,6.80
2018-02-15T14:53:02.450Z,6.80
2018-02-15T14:55:30.754Z,6.70
2018-02-15T14:57:59.087Z,6.70
2018-02-15T15:00:26.601Z,6.70
2018-02-15T15:02:54.112Z,6.70
2018-02-15T15:05:21.642Z,6.70
2018-02-15T15:07:49.172Z,6.60
2018-02-15T15:10:17.458Z,6.50
2018-02-15T15:12:44.970Z,6.50
2018-02-15T15:15:12.523Z,6.50
2018-02-15T15:17:40.066Z,6.60
2018-02-15T15:20:07.588Z,6.60
2018-02-15T15:22:35.892Z,6.60
2018-02-15T15:25:03.484Z,6.60
2018-02-15T15:27:31.120Z,6.50
2018-02-15T15:29:59.424Z,6.40
2018-02-15T15:32:27.029Z,6.40
2018-02-15T15:34:54.555Z,6.50
2018-02-15T15:37:22.059Z,6.50
2018-02-15T15:39:49.580Z,6.40
2018-02-15T15:42:17.093Z,6.40
2018-02-15T15:44:44.633Z,6.40
2018-02-15T15:47:12.164Z,6.40
2018-02-15T15:49:39.696Z,6.30
2018-02-15T15:52:07.254Z,6.30
2018-02-15T15:54:34.780Z,6.30
2018-02-15T15:57:02.293Z,6.20
2018-02-15T15:59:29.840Z,6.30
2018-02-15T16:01:57.356Z,6.20
2018-02-15T16:04:24.911Z,6.30
2018-02-15T16:06:52.439Z,6.20
2018-02-15T16:09:19.971Z,6.20
2018-02-15T16:11:47.467Z,6.20
2018-02-15T16:14:14.974Z,6.20
2018-02-15T16:16:42.482Z,6.10
2018-02-15T16:19:10.017Z,6.10
2018-02-15T16:21:37.546Z,6.10
2018-02-15T16:24:05.822Z,6.10
2018-02-15T16:26:34.107Z,6.10
2018-02-15T16:29:02.407Z,6.10
2018-02-15T16:31:29.927Z,6.10
2018-02-15T16:33:57.447Z,6.00
2018-02-15T16:36:24.988Z,6.00
2018-02-15T16:38:53.260Z,5.90
2018-02-15T16:41:20.765Z,5.90
2018-02-15T16:43:49.063Z,5.90
2018-02-15T16:46:16.572Z,5.90
2018-02-15T16:48:44.876Z,5.90
2018-02-15T16:51:12.397Z,5.80
2018-02-15T16:53:39.923Z,5.80
2018-02-15T16:56:07.451Z,5.80
2018-02-15T16:58:35.740Z,5.80
2018-02-15T17:01:03.291Z,5.80
2018-02-15T17:03:31.572Z,5.70
2018-02-15T17:05:59.855Z,5.70
2018-02-15T17:08:28.140Z,5.70
2018-02-15T17:10:56.534Z,5.70
2018-02-15T17:13:24.133Z,5.70
2018-02-15T17:15:51.701Z,5.70
2018-02-15T17:18:19.245Z,5.70
2018-02-15T17:20:46.791Z,5.70
2018-02-15T17:23:15.120Z,5.70
2018-02-15T17:25:42.642Z,5.70
2018-02-15T17:28:10.159Z,5.70
2018-02-15T17:30:37.703Z,5.60
2018-02-15T17:33:06.103Z,5.60
2018-02-15T17:35:33.643Z,5.60
2018-02-15T17:38:01.143Z,5.60
2018-02-15T17:40:28.657Z,5.60
2018-02-15T17:42:56.195Z,5.60
2018-02-15T17:45:24.499Z,5.50
2018-02-15T17:47:52.036Z,5.50
2018-02-15T17:50:19.546Z,5.60
2018-02-15T17:52:47.114Z,5.50
2018-02-15T17:55:14.621Z,5.50
2018-02-15T17:57:42.142Z,5.50
2018-02-15T18:00:09.659Z,5.60
2018-02-15T18:02:37.940Z,5.50
2018-02-15T18:05:06.239Z,5.50
2018-02-15T18:07:34.544Z,5.50
2018-02-15T18:10:02.124Z,5.50
2018-02-15T18:12:30.398Z,5.50
2018-02-15T18:14:57.892Z,5.50
2018-02-15T18:17:25.417Z,5.50
2018-02-15T18:19:52.951Z,5.40
2018-02-15T18:22:21.262Z,5.40
2018-02-15T18:24:48.802Z,5.50
2018-02-15T18:27:17.140Z,5.40
2018-02-15T18:29:44.653Z,5.40
2018-02-15T18:32:12.956Z,5.30
2018-02-15T18:34:40.462Z,5.30
2018-02-15T18:37:07.988Z,5.30
2018-02-15T18:39:35.610Z,5.30
2018-02-15T18:42:03.878Z,5.30
2018-02-15T18:44:31.417Z,5.30
2018-02-15T18:46:59.044Z,5.30
2018-02-15T18:49:26.575Z,5.30
2018-02-15T18:51:54.112Z,5.20
2018-02-15T18:54:21.611Z,5.20
2018-02-15T18:56:49.765Z,5.20
2018-02-15T18:59:17.296Z,5.20
2018-02-15T19:01:44.826Z,5.10
2018-02-15T19:04:13.126Z,5.10
2018-02-15T19:06:40.670Z,5.10
2018-02-15T19:09:08.971Z,5.10
2018-02-15T19:11:37.266Z,5.00
2018-02-15T19:14:04.793Z,5.00
2018-02-15T19:16:33.114Z,4.90
2018-02-15T19:19:00.644Z,4.90
2018-02-15T19:21:29.073Z,4.90
2018-02-15T19:23:56.589Z,4.90
2018-02-15T19:26:24.110Z,4.90
2018-02-15T19:28:51.624Z,4.90
2018-02-15T19:31:19.940Z,4.80
2018-02-15T19:33:47.463Z,4.80
2018-02-15T19:36:15.000Z,4.80
2018-02-15T19:38:42.531Z,4.80
2018-02-15T19:41:10.070Z,4.80
2018-02-15T19:43:38.348Z,4.80
2018-02-15T19:46:06.637Z,4.80
2018-02-15T19:48:34.946Z,4.90
2018-02-15T19:51:02.454Z,4.90
2018-02-15T19:53:30.037Z,4.90
2018-02-15T19:55:58.311Z,4.80
2018-02-15T19:58:25.843Z,4.80
2018-02-15T20:00:53.362Z,4.80
2018-02-15T20:03:20.879Z,4.80
2018-02-15T20:05:48.446Z,4.80
2018-02-15T20:08:16.014Z,4.80
2018-02-15T20:10:43.531Z,4.80
2018-02-15T20:13:11.041Z,4.80
2018-02-15T20:15:44.246Z,4.80
2018-02-15T20:18:11.759Z,4.80
2018-02-15T20:20:39.272Z,4.70
2018-02-15T20:23:06.782Z,4.70
2018-02-15T20:25:34.287Z,4.60
2018-02-15T20:28:07.415Z,4.60
2018-02-15T20:30:35.693Z,4.60
2018-02-15T20:33:03.991Z,4.50
2018-02-15T20:35:31.523Z,4.50
2018-02-15T20:38:05.564Z,4.50
2018-02-15T20:40:36.332Z,4.40
2018-02-15T20:43:03.836Z,4.40
2018-02-15T20:45:31.370Z,4.40
2018-02-15T20:47:58.871Z,4.40
2018-02-15T20:50:32.174Z,4.40
2018-02-15T20:53:06.179Z,4.40
2018-02-15T20:55:39.414Z,4.40
2018-02-15T20:58:06.921Z,4.30
2018-02-15T21:00:34.521Z,4.30
2018-02-15T21:03:01.991Z,4.30
2018-02-15T21:05:30.276Z,4.30
2018-02-15T21:07:58.570Z,4.30
2018-02-15T21:10:26.088Z,4.30
2018-02-15T21:12:53.621Z,4.30
2018-02-15T21:15:21.149Z,4.30
2018-02-15T21:17:49.478Z,4.20
2018-02-15T21:20:17.027Z,4.10
2018-02-15T21:22:45.331Z,4.20
2018-02-15T21:25:12.831Z,4.10
2018-02-15T21:27:41.112Z,4.10
2018-02-15T21:30:09.663Z,4.20
2018-02-15T21:32:37.206Z,4.10
2018-02-15T21:35:04.704Z,4.10
2018-02-15T21:37:32.226Z,4.10
2018-02-15T21:39:59.749Z,4.10
2018-02-15T21:42:28.064Z,4.10
2018-02-15T21:44:55.569Z,4.10
2018-02-15T21:47:23.082Z,4.10
2018-02-15T21:49:50.617Z,4.10
2018-02-15T21:52:18.132Z,4.10
2018-02-15T21:54:45.661Z,4.00
2018-02-15T21:57:13.940Z,4.00
2018-02-15T21:59:42.229Z,4.00
2018-02-15T22:02:09.765Z,3.90
2018-02-15T22:04:37.280Z,4.00
2018-02-15T22:07:04.816Z,3.90
2018-02-15T22:09:33.124Z,3.90
2018-02-15T22:12:00.646Z,3.90
2018-02-15T22:14:28.964Z,3.90
2018-02-15T22:16:56.567Z,3.80
2018-02-15T22:19:25.888Z,3.80
2018-02-15T22:21:54.167Z,3.70
2018-02-15T22:24:21.654Z,3.70
2018-02-15T22:26:49.861Z,3.80
2018-02-15T22:29:17.309Z,3.80
2018-02-15T22:31:44.758Z,3.90
2018-02-15T22:34:12.977Z,3.80
2018-02-15T22:36:40.439Z,3.80
2018-02-15T22:39:07.890Z,3.80
2018-02-15T22:41:35.359Z,3.80
2018-02-15T22:44:02.820Z,3.90
2018-02-15T22:46:30.282Z,3.80
2018-02-15T22:48:57.761Z,3.80
2018-02-15T22:51:25.206Z,3.80
2018-02-15T22:53:52.929Z,3.80
2018-02-15T22:56:20.378Z,3.80
2018-02-15T22:58:47.821Z,3.70
2018-02-15T23:01:15.264Z,3.60
2018-02-15T23:03:42.721Z,3.70
2018-02-15T23:06:10.173Z,3.70
2018-02-15T23:08:37.640Z,3.80
2018-02-15T23:11:05.097Z,3.80
2018-02-15T23:13:32.530Z,3.80
2018-02-15T23:15:59.986Z,3.80
2018-02-15T23:18:27.427Z,3.80
2018-02-15T23:20:54.895Z,3.90
2018-02-15T23:23:22.359Z,4.00
2018-02-15T23:25:49.812Z,4.00
2018-02-15T23:28:17.276Z,4.10
2018-02-15T23:30:44.738Z,4.10
2018-02-15T23:33:12.203Z,4.20
2018-02-15T23:35:39.656Z,4.20
2018-02-15T23:38:07.114Z,4.20
2018-02-15T23:40:34.582Z,4.20
2018-02-15T23:43:02.026Z,4.30
2018-02-15T23:45:29.496Z,4.20
2018-02-15T23:47:57.722Z,4.20
2018-02-15T23:50:25.195Z,4.20
2018-02-15T23:52:52.632Z,4.20
2018-02-15T23:55:20.106Z,4.20
2018-02-15T23:57:47.561Z,4.20
